createdAt,value
2022-10-11T00:00:37.992Z,73.05
2022-10-11T00:03:22.448Z,73.18
2022-10-11T00:06:06.577Z,73.52
2022-10-11T00:08:49.927Z,73.68
2022-10-11T00:11:32.818Z,73.91
2022-10-11T00:14:15.746Z,73.83
2022-10-11T00:16:58.773Z,73.78
2022-10-11T00:19:42.933Z,73.47
2022-10-11T00:22:25.854Z,73.82
2022-10-11T00:25:10.793Z,73.51
2022-10-11T00:27:53.692Z,73.51
2022-10-11T00:30:36.511Z,73.90
2022-10-11T00:33:19.461Z,73.70
2022-10-11T00:36:04.287Z,73.83
2022-10-11T00:38:47.911Z,74.01
2022-10-11T00:41:30.910Z,73.77
2022-10-11T00:44:17.203Z,73.75
2022-10-11T00:47:02.964Z,74.33
2022-10-11T00:49:49.128Z,74.47
2022-10-11T00:52:38.569Z,74.36
2022-10-11T00:55:23.183Z,74.12
2022-10-11T00:58:07.286Z,74.29
2022-10-11T01:00:50.683Z,73.87
2022-10-11T01:03:36.216Z,73.72
2022-10-11T01:06:19.184Z,73.73
2022-10-11T01:09:04.782Z,73.93
2022-10-11T01:11:49.006Z,73.90
2022-10-11T01:14:54.837Z,73.88
2022-10-11T01:17:47.530Z,73.87
2022-10-11T01:20:46.611Z,74.06
2022-10-11T01:24:08.682Z,74.14
2022-10-11T01:27:25.942Z,74.13
2022-10-11T01:30:20.331Z,74.27
2022-10-11T01:33:16.991Z,74.20
2022-10-11T01:36:08.442Z,74.19
2022-10-11T01:38:55.134Z,74.15
2022-10-11T01:41:40.848Z,74.48
2022-10-11T01:44:25.461Z,74.28
2022-10-11T01:47:09.718Z,74.41
2022-10-11T01:49:57.385Z,74.36
2022-10-11T01:52:44.935Z,74.31
2022-10-11T01:55:37.222Z,74.46
2022-10-11T01:58:38.150Z,74.69
2022-10-11T02:01:32.118Z,74.45
2022-10-11T02:04:21.488Z,74.80
2022-10-11T02:07:11.878Z,75.00
2022-10-11T02:10:01.415Z,75.17
2022-10-11T02:12:47.953Z,75.30
2022-10-11T02:15:33.913Z,75.45
2022-10-11T02:18:20.371Z,75.57
2022-10-11T02:21:08.690Z,75.78
2022-10-11T02:23:55.966Z,76.23
2022-10-11T02:26:44.759Z,76.15
2022-10-11T02:29:30.686Z,76.25
2022-10-11T02:32:15.428Z,76.21
2022-10-11T02:34:59.211Z,76.67
2022-10-11T02:37:54.072Z,76.05
2022-10-11T02:40:40.722Z,75.98
2022-10-11T02:43:30.682Z,76.01
2022-10-11T02:46:17.561Z,75.89
2022-10-11T02:49:01.621Z,75.98
2022-10-11T02:51:44.879Z,75.96
2022-10-11T02:54:29.062Z,75.98
2022-10-11T02:57:11.981Z,75.87
2022-10-11T02:59:54.880Z,75.77
2022-10-11T03:02:37.875Z,75.77
2022-10-11T03:05:20.867Z,75.85
2022-10-11T03:08:03.782Z,75.83
2022-10-11T03:10:48.359Z,75.92
2022-10-11T03:13:31.243Z,75.63
2022-10-11T03:16:14.856Z,75.91
2022-10-11T03:18:57.968Z,76.20
2022-10-11T03:21:40.840Z,75.98
2022-10-11T03:24:23.815Z,76.00
2022-10-11T03:27:08.585Z,76.09
2022-10-11T03:29:51.212Z,76.30
2022-10-11T03:32:34.084Z,76.12
2022-10-11T03:35:17.900Z,75.96
2022-10-11T03:38:00.767Z,75.93
2022-10-11T03:40:44.767Z,76.03
2022-10-11T03:43:29.033Z,76.03
2022-10-11T03:46:11.918Z,76.09
2022-10-11T03:48:54.884Z,75.98
2022-10-11T03:51:37.775Z,76.03
2022-10-11T03:54:20.648Z,76.06
2022-10-11T03:57:03.535Z,76.23
2022-10-11T03:59:48.098Z,76.23
2022-10-11T04:02:32.211Z,76.14
2022-10-11T04:05:16.750Z,76.23
2022-10-11T04:07:59.651Z,76.05
2022-10-11T04:10:42.817Z,75.99
2022-10-11T04:13:25.695Z,75.87
2022-10-11T04:16:09.973Z,75.61
2022-10-11T04:18:52.825Z,76.06
2022-10-11T04:21:35.647Z,75.95
2022-10-11T04:24:18.579Z,76.15
2022-10-11T04:27:01.469Z,76.11
2022-10-11T04:29:44.383Z,76.28
2022-10-11T04:32:28.791Z,76.21
2022-10-11T04:35:12.624Z,76.06
2022-10-11T04:37:55.499Z,76.36
2022-10-11T04:40:38.379Z,76.46
2022-10-11T04:43:21.600Z,76.46
2022-10-11T04:46:05.888Z,76.70
2022-10-11T04:48:50.448Z,77.00
2022-10-11T04:51:34.049Z,77.21
2022-10-11T04:54:17.088Z,77.14
2022-10-11T04:56:59.942Z,77.04
2022-10-11T04:59:45.496Z,77.05
2022-10-11T05:02:32.270Z,76.87
2022-10-11T05:05:17.632Z,77.01
2022-10-11T05:08:00.545Z,76.51
2022-10-11T05:10:43.642Z,76.50
2022-10-11T05:13:27.217Z,76.66
2022-10-11T05:16:11.445Z,76.48
2022-10-11T05:18:54.700Z,76.45
2022-10-11T05:21:38.905Z,76.55
2022-10-11T05:24:21.836Z,76.50
2022-10-11T05:27:04.843Z,76.85
2022-10-11T05:29:47.743Z,76.87
2022-10-11T05:32:30.587Z,76.91
2022-10-11T05:35:13.472Z,77.14
2022-10-11T05:37:57.664Z,77.26
2022-10-11T05:40:40.981Z,77.30
2022-10-11T05:43:24.022Z,77.47
2022-10-11T05:46:08.183Z,77.33
2022-10-11T05:48:51.380Z,77.12
2022-10-11T05:51:34.236Z,77.06
2022-10-11T05:54:18.500Z,77.03
2022-10-11T05:57:01.350Z,77.04
2022-10-11T05:59:44.280Z,77.25
2022-10-11T06:02:27.228Z,77.09
2022-10-11T06:05:10.731Z,77.05
2022-10-11T06:07:53.645Z,77.10
2022-10-11T06:10:38.863Z,77.30
2022-10-11T06:13:21.704Z,77.11
2022-10-11T06:16:05.282Z,77.18
2022-10-11T06:18:48.430Z,77.05
2022-10-11T06:21:32.906Z,76.97
2022-10-11T06:24:16.035Z,77.13
2022-10-11T06:27:00.495Z,76.93
2022-10-11T06:29:43.348Z,76.82
2022-10-11T06:32:26.178Z,76.69
2022-10-11T06:35:09.875Z,76.69
2022-10-11T06:37:52.755Z,76.71
2022-10-11T06:40:35.633Z,76.71
2022-10-11T06:43:20.188Z,76.95
2022-10-11T06:46:03.271Z,76.96
2022-10-11T06:48:47.650Z,76.92
2022-10-11T06:51:30.541Z,76.87
2022-10-11T06:54:13.479Z,76.83
2022-10-11T06:56:56.348Z,77.02
2022-10-11T06:59:40.636Z,77.30
2022-10-11T07:02:23.532Z,77.45
2022-10-11T07:05:07.127Z,77.47
2022-10-11T07:07:49.992Z,77.60
2022-10-11T07:10:32.905Z,77.28
2022-10-11T07:13:17.299Z,77.42
2022-10-11T07:16:04.153Z,77.40
2022-10-11T07:18:47.947Z,77.31
2022-10-11T07:21:32.212Z,77.36
2022-10-11T07:24:15.118Z,77.03
2022-10-11T07:26:58.055Z,77.13
2022-10-11T07:29:40.913Z,77.10
2022-10-11T07:32:25.175Z,76.99
2022-10-11T07:35:08.584Z,76.88
2022-10-11T07:37:51.514Z,76.56
2022-10-11T07:40:35.544Z,76.63
2022-10-11T07:43:18.530Z,76.47
2022-10-11T07:46:04.634Z,76.24
2022-10-11T07:48:50.136Z,76.33
2022-10-11T07:51:34.202Z,75.96
2022-10-11T07:54:17.070Z,76.22
2022-10-11T07:57:00.008Z,76.22
2022-10-11T07:59:47.833Z,76.35
2022-10-11T08:02:32.953Z,76.34
2022-10-11T08:05:17.618Z,76.19
2022-10-11T08:08:00.706Z,76.32
2022-10-11T08:10:43.797Z,76.29
2022-10-11T08:13:27.564Z,76.20
2022-10-11T08:16:12.265Z,75.87
2022-10-11T08:18:56.960Z,75.97
2022-10-11T08:21:41.715Z,76.10
2022-10-11T08:24:43.485Z,75.60
2022-10-11T08:27:26.417Z,75.48
2022-10-11T08:30:10.749Z,75.51
2022-10-11T08:32:53.639Z,75.03
2022-10-11T08:35:37.438Z,75.34
2022-10-11T08:38:22.159Z,74.80
2022-10-11T08:41:23.683Z,74.76
2022-10-11T08:44:18.507Z,74.80
2022-10-11T08:47:04.346Z,74.03
2022-10-11T08:49:48.179Z,74.17
2022-10-11T08:52:36.863Z,74.15
2022-10-11T08:55:27.745Z,73.59
2022-10-11T08:58:14.928Z,73.60
2022-10-11T09:00:58.989Z,73.27
2022-10-11T09:03:43.661Z,73.05
2022-10-11T09:06:39.215Z,73.09
2022-10-11T09:09:35.957Z,72.83
2022-10-11T09:12:33.516Z,72.67
2022-10-11T09:15:30.649Z,72.11
2022-10-11T09:18:41.145Z,71.77
2022-10-11T09:21:33.570Z,71.56
2022-10-11T09:24:34.302Z,71.98
2022-10-11T09:27:33.255Z,72.17
2022-10-11T09:30:25.399Z,71.67
2022-10-11T09:33:17.711Z,71.55
2022-10-11T09:36:01.434Z,71.28
2022-10-11T09:38:51.897Z,70.20
2022-10-11T09:41:39.513Z,69.92
2022-10-11T09:44:26.483Z,69.67
2022-10-11T09:47:16.331Z,69.63
2022-10-11T09:50:03.006Z,69.46
2022-10-11T09:52:49.906Z,69.80
2022-10-11T09:55:36.318Z,69.46
2022-10-11T09:58:38.516Z,68.88
2022-10-11T10:01:28.263Z,69.26
2022-10-11T10:04:13.636Z,69.30
2022-10-11T10:07:12.873Z,69.07
2022-10-11T10:09:56.078Z,69.04
2022-10-11T10:12:39.006Z,68.52
2022-10-11T10:15:31.017Z,68.45
2022-10-11T10:18:22.163Z,68.67
2022-10-11T10:21:08.667Z,68.72
2022-10-11T10:23:55.361Z,68.99
2022-10-11T10:26:39.979Z,68.75
2022-10-11T10:29:22.790Z,68.63
2022-10-11T10:32:14.937Z,68.67
2022-10-11T10:35:07.745Z,68.34
2022-10-11T10:37:58.566Z,68.31
2022-10-11T10:40:44.694Z,68.25
2022-10-11T10:43:30.983Z,67.90
2022-10-11T10:46:27.056Z,68.17
2022-10-11T10:52:42.110Z,67.57
2022-10-11T10:55:29.829Z,68.04
2022-10-11T10:58:31.531Z,68.13
2022-10-11T11:01:20.230Z,68.07
2022-10-11T11:04:11.341Z,68.46
2022-10-11T11:06:59.766Z,68.63
2022-10-11T11:09:55.847Z,68.30
2022-10-11T11:12:47.823Z,68.54
2022-10-11T11:15:38.091Z,68.37
2022-10-11T11:18:29.923Z,68.87
2022-10-11T11:21:24.701Z,68.73
2022-10-11T11:24:18.325Z,69.11
2022-10-11T11:27:07.574Z,69.13
2022-10-11T11:29:57.364Z,69.36
2022-10-11T11:32:50.321Z,69.40
2022-10-11T11:35:37.959Z,69.47
2022-10-11T11:38:29.400Z,69.82
2022-10-11T11:41:18.183Z,69.81
2022-10-11T11:44:07.650Z,69.82
2022-10-11T11:46:57.855Z,69.76
2022-10-11T11:49:46.301Z,69.61
2022-10-11T11:52:34.739Z,69.87
2022-10-11T11:55:24.036Z,69.81
2022-10-11T11:58:18.379Z,69.92
2022-10-11T12:01:13.431Z,69.84
2022-10-11T12:03:59.360Z,70.15
2022-10-11T12:07:04.199Z,70.04
2022-10-11T12:09:50.496Z,70.67
2022-10-11T12:12:36.242Z,70.42
2022-10-11T12:15:23.460Z,68.18
2022-10-11T12:18:16.506Z,67.81
2022-10-11T12:21:05.805Z,67.97
2022-10-11T12:23:49.647Z,67.85
2022-10-11T12:26:44.035Z,66.96
2022-10-11T12:29:46.708Z,67.45
2022-10-11T12:32:51.936Z,67.43
2022-10-11T12:36:07.379Z,66.64
2022-10-11T12:39:43.197Z,67.06
2022-10-11T12:42:31.745Z,67.34
2022-10-11T12:45:35.436Z,67.21
2022-10-11T12:48:45.348Z,67.14
2022-10-11T12:51:36.261Z,67.35
2022-10-11T12:54:44.601Z,66.60
2022-10-11T12:58:06.301Z,66.49
2022-10-11T13:01:24.990Z,65.96
2022-10-11T13:04:10.872Z,66.24
2022-10-11T13:07:01.095Z,66.15
2022-10-11T13:09:49.198Z,66.60
2022-10-11T13:12:38.443Z,66.04
2022-10-11T13:15:24.347Z,66.35
2022-10-11T13:18:07.149Z,65.07
2022-10-11T13:20:50.227Z,65.53
2022-10-11T13:23:39.863Z,64.89
2022-10-11T13:26:22.796Z,64.98
2022-10-11T13:29:16.093Z,65.29
2022-10-11T13:31:59.642Z,65.41
2022-10-11T13:34:45.552Z,65.27
2022-10-11T13:37:29.949Z,65.55
2022-10-11T13:40:18.714Z,66.15
2022-10-11T13:43:06.161Z,65.79
2022-10-11T13:45:49.733Z,65.89
2022-10-11T13:48:32.687Z,65.86
2022-10-11T13:51:27.666Z,65.95
2022-10-11T13:54:15.814Z,65.25
2022-10-11T13:57:05.139Z,65.25
2022-10-11T13:59:48.102Z,64.99
2022-10-11T14:02:35.578Z,65.47
2022-10-11T14:05:35.406Z,64.81
2022-10-11T14:08:25.720Z,65.29
2022-10-11T14:11:09.962Z,65.49
2022-10-11T14:13:54.207Z,65.47
2022-10-11T14:16:37.127Z,65.49
2022-10-11T14:19:21.656Z,65.28
2022-10-11T14:22:06.715Z,65.57
2022-10-11T14:24:49.707Z,65.45
2022-10-11T14:27:32.683Z,65.51
2022-10-11T14:30:25.530Z,65.70
2022-10-11T14:33:09.586Z,65.65
2022-10-11T14:35:52.891Z,65.47
2022-10-11T14:38:35.806Z,65.66
2022-10-11T14:41:18.986Z,66.05
2022-10-11T14:44:01.875Z,65.99
2022-10-11T14:46:47.920Z,66.01
2022-10-11T14:49:33.670Z,65.57
2022-10-11T14:52:16.555Z,66.15
2022-10-11T14:54:59.439Z,66.16
2022-10-11T14:57:42.310Z,66.16
2022-10-11T15:00:28.683Z,66.26
2022-10-11T15:03:13.898Z,66.24
2022-10-11T15:05:56.910Z,66.15
2022-10-11T15:08:39.768Z,66.14
2022-10-11T15:11:23.730Z,66.50
2022-10-11T15:14:07.444Z,66.09
2022-10-11T15:16:50.419Z,66.19
2022-10-11T15:19:34.615Z,66.66
2022-10-11T15:22:17.522Z,66.33
2022-10-11T15:25:00.793Z,66.44
2022-10-11T15:27:43.861Z,66.48
2022-10-11T15:30:29.673Z,66.73
2022-10-11T15:33:12.557Z,66.74
2022-10-11T15:35:56.809Z,67.07
2022-10-11T15:38:39.979Z,67.31
2022-10-11T15:41:23.940Z,67.02
2022-10-11T15:44:06.789Z,67.32
2022-10-11T15:46:49.717Z,67.46
2022-10-11T15:49:32.589Z,67.54
2022-10-11T15:52:16.834Z,67.57
2022-10-11T15:54:59.708Z,67.50
2022-10-11T15:57:42.614Z,67.53
2022-10-11T16:00:26.361Z,67.97
2022-10-11T16:03:11.857Z,67.85
2022-10-11T16:05:55.440Z,67.75
2022-10-11T16:08:40.210Z,67.82
2022-10-11T16:11:22.916Z,67.73
2022-10-11T16:14:06.071Z,67.77
2022-10-11T16:16:49.035Z,67.54
2022-10-11T16:19:31.960Z,67.46
2022-10-11T16:22:14.949Z,67.23
2022-10-11T16:24:59.186Z,67.54
2022-10-11T16:27:42.107Z,67.20
2022-10-11T16:30:25.394Z,67.12
2022-10-11T16:33:08.253Z,67.10
2022-10-11T16:35:51.191Z,67.12
2022-10-11T16:38:34.101Z,67.19
2022-10-11T16:41:18.333Z,67.54
2022-10-11T16:44:01.235Z,67.10
2022-10-11T16:46:47.713Z,67.33
2022-10-11T16:49:30.633Z,67.21
2022-10-11T16:52:14.162Z,67.41
2022-10-11T16:54:57.094Z,67.59
2022-10-11T16:57:41.314Z,67.39
2022-10-11T17:00:24.217Z,67.60
2022-10-11T17:03:08.007Z,67.51
2022-10-11T17:05:51.698Z,67.77
2022-10-11T17:08:35.337Z,67.74
2022-10-11T17:11:18.625Z,67.79
2022-10-11T17:14:03.473Z,68.06
2022-10-11T17:16:46.623Z,68.04
2022-10-11T17:19:29.537Z,68.08
2022-10-11T17:22:13.751Z,68.08
2022-10-11T17:24:56.601Z,68.26
2022-10-11T17:27:39.554Z,68.21
2022-10-11T17:30:24.392Z,68.48
2022-10-11T17:33:07.046Z,68.76
2022-10-11T17:35:49.920Z,68.46
2022-10-11T17:38:32.811Z,68.37
2022-10-11T17:41:15.759Z,68.35
2022-10-11T17:43:59.337Z,68.21
2022-10-11T17:46:44.140Z,68.39
2022-10-11T17:49:27.081Z,68.26
2022-10-11T17:52:10.346Z,68.48
2022-10-11T17:54:53.226Z,68.59
2022-10-11T17:57:36.772Z,68.25
2022-10-11T18:00:19.755Z,68.51
2022-10-11T18:03:04.495Z,68.58
2022-10-11T18:05:47.157Z,69.39
2022-10-11T18:08:30.027Z,68.69
2022-10-11T18:11:14.846Z,68.89
2022-10-11T18:13:57.794Z,69.71
2022-10-11T18:16:41.010Z,69.11
2022-10-11T18:19:25.759Z,69.36
2022-10-11T18:22:08.630Z,69.71
2022-10-11T18:24:51.542Z,69.71
2022-10-11T18:27:34.412Z,69.98
2022-10-11T18:30:17.442Z,69.68
2022-10-11T18:33:00.409Z,69.81
2022-10-11T18:35:44.735Z,69.91
2022-10-11T18:38:27.571Z,69.60
2022-10-11T18:41:12.371Z,69.67
2022-10-11T18:43:56.506Z,69.40
2022-10-11T18:46:39.758Z,69.52
2022-10-11T18:49:22.683Z,69.63
2022-10-11T18:52:07.967Z,69.47
2022-10-11T18:54:50.913Z,69.54
2022-10-11T18:57:34.874Z,69.43
2022-10-11T19:00:39.594Z,69.25
2022-10-11T19:03:22.759Z,69.50
2022-10-11T19:06:06.989Z,69.40
2022-10-11T19:08:53.322Z,69.36
2022-10-11T19:11:36.496Z,69.48
2022-10-11T19:14:21.657Z,69.63
2022-10-11T19:17:04.750Z,69.44
2022-10-11T19:19:49.995Z,69.56
2022-10-11T19:22:32.884Z,69.59
2022-10-11T19:25:17.249Z,69.63
2022-10-11T19:28:00.173Z,69.67
2022-10-11T19:30:42.997Z,69.65
2022-10-11T19:33:25.866Z,69.79
2022-10-11T19:36:09.940Z,69.60
2022-10-11T19:38:56.480Z,69.52
2022-10-11T19:41:41.196Z,69.53
2022-10-11T19:44:23.962Z,69.27
2022-10-11T19:47:06.887Z,69.15
2022-10-11T19:49:49.740Z,68.90
2022-10-11T19:52:32.873Z,69.02
2022-10-11T19:55:16.268Z,69.00
2022-10-11T19:58:04.546Z,68.57
2022-10-11T20:00:59.733Z,68.66
2022-10-11T20:03:42.936Z,68.77
2022-10-11T20:06:28.512Z,68.60
2022-10-11T20:12:14.940Z,68.55
2022-10-11T20:14:59.179Z,68.56
2022-10-11T20:17:51.685Z,68.54
2022-10-11T20:20:34.551Z,68.44
2022-10-11T20:23:18.263Z,68.16
2022-10-11T20:26:03.122Z,68.13
2022-10-11T20:28:46.251Z,68.21
2022-10-11T20:31:32.177Z,68.06
2022-10-11T20:34:15.066Z,67.95
2022-10-11T20:36:57.910Z,67.95
2022-10-11T20:39:40.804Z,67.83
2022-10-11T20:42:28.936Z,68.20
2022-10-11T20:45:12.626Z,68.05
2022-10-11T20:47:56.858Z,67.62
2022-10-11T20:50:39.839Z,67.74
2022-10-11T20:53:23.459Z,67.60
2022-10-11T20:56:08.735Z,67.67
2022-10-11T20:58:53.188Z,67.73
2022-10-11T21:01:38.370Z,67.79
2022-10-11T21:04:22.620Z,67.93
2022-10-11T21:07:05.498Z,67.83
2022-10-11T21:09:48.439Z,67.73
2022-10-11T21:12:31.625Z,67.84
2022-10-11T21:15:14.871Z,67.71
2022-10-11T21:17:58.083Z,67.64
2022-10-11T21:20:43.198Z,67.56
2022-10-11T21:23:26.086Z,67.59
2022-10-11T21:26:10.669Z,67.50
2022-10-11T21:28:53.576Z,67.69
2022-10-11T21:31:37.119Z,68.05
2022-10-11T21:34:20.010Z,67.47
2022-10-11T21:37:04.269Z,67.72
2022-10-11T21:39:47.094Z,67.59
2022-10-11T21:42:29.969Z,67.76
2022-10-11T21:45:12.913Z,68.17
2022-10-11T21:47:55.709Z,68.26
2022-10-11T21:50:38.577Z,68.19
2022-10-11T21:53:22.845Z,68.31
2022-10-11T21:56:05.960Z,68.30
2022-10-11T21:58:49.485Z,68.01
2022-10-11T22:01:32.482Z,68.04
2022-10-11T22:04:15.453Z,67.81
2022-10-11T22:06:58.555Z,67.59
2022-10-11T22:09:42.795Z,67.44
2022-10-11T22:12:25.647Z,67.27
2022-10-11T22:15:09.448Z,67.62
2022-10-11T22:17:52.772Z,67.79
2022-10-11T22:20:35.705Z,67.99
2022-10-11T22:23:19.030Z,68.14
2022-10-11T22:26:08.689Z,68.13
2022-10-11T22:28:51.732Z,67.93
2022-10-11T22:31:36.241Z,67.82
2022-10-11T22:34:19.158Z,68.04
2022-10-11T22:37:01.975Z,67.99
2022-10-11T22:39:44.858Z,67.94
2022-10-11T22:42:30.268Z,67.99
2022-10-11T22:45:13.145Z,67.89
2022-10-11T22:47:55.990Z,68.07
2022-10-11T22:50:38.931Z,67.97
2022-10-11T22:53:21.917Z,67.92
2022-10-11T22:56:04.997Z,67.93
2022-10-11T22:58:49.286Z,67.85
2022-10-11T23:01:32.250Z,68.16
2022-10-11T23:04:17.633Z,67.94
2022-10-11T23:07:04.819Z,67.96
2022-10-11T23:09:48.029Z,67.97
2022-10-11T23:12:31.108Z,67.98
2022-10-11T23:15:15.949Z,68.08
2022-10-11T23:17:58.860Z,67.87
2022-10-11T23:20:41.737Z,67.78
2022-10-11T23:23:24.670Z,67.69
2022-10-11T23:26:09.847Z,67.95
2022-10-11T23:28:55.278Z,68.19
2022-10-11T23:31:39.519Z,68.48
2022-10-11T23:34:22.413Z,68.56
2022-10-11T23:37:05.949Z,68.57
2022-10-11T23:39:48.790Z,68.59
2022-10-11T23:42:31.763Z,68.98
2022-10-11T23:45:14.739Z,68.84
2022-10-11T23:47:58.950Z,68.84
2022-10-11T23:50:41.831Z,69.00
2022-10-11T23:53:24.785Z,68.92
2022-10-11T23:56:08.774Z,69.06
2022-10-11T23:58:51.658Z,68.75
